Time;durP1;ratioP1;P1;durP2;ratioP2;P2;SDS_P1;SDS_P2;PMS_P1;PMS_P2;Temp;Humidity;BMP_temperature;BMP_pressure;BME280_temperature;BME280_humidity;BME280_pressure;Samples;Min_cycle;Max_cycle;Signal;HPM_P1;HPM_P2
2021/06/15 00:01:14;;;;;;;4.60;4.20;;;29.30;67.40;;;;;;5124380;28;20034;-41
2021/06/15 00:03:40;;;;;;;4.03;3.73;;;29.30;67.40;;;;;;5125011;28;20027;-42
2021/06/15 00:06:06;;;;;;;4.07;3.78;;;29.30;67.50;;;;;;5124945;28;20023;-41
2021/06/15 00:08:32;;;;;;;4.60;4.20;;;29.30;67.50;;;;;;5106550;28;20035;-41
2021/06/15 00:10:59;;;;;;;4.07;3.77;;;29.30;67.60;;;;;;5124265;28;20128;-40
2021/06/15 00:13:25;;;;;;;4.60;4.30;;;29.20;67.50;;;;;;5124664;28;20271;-41
2021/06/15 00:15:51;;;;;;;4.53;4.23;;;29.20;67.50;;;;;;5124452;28;20023;-42
2021/06/15 00:18:18;;;;;;;4.43;4.03;;;29.20;67.50;;;;;;5124184;28;20264;-43
2021/06/15 00:20:44;;;;;;;;;;;29.20;67.50;;;;;;5125005;28;20654;-42
2021/06/15 00:23:10;;;;;;;4.35;3.95;;;29.20;67.50;;;;;;5123553;28;20271;-42
2021/06/15 00:25:36;;;;;;;4.70;4.28;;;29.20;67.50;;;;;;5124254;28;20027;-42
2021/06/15 00:28:03;;;;;;;4.53;4.13;;;29.20;67.60;;;;;;5124507;28;20024;-43
2021/06/15 00:30:29;;;;;;;;;;;29.20;67.60;;;;;;5124733;28;20252;-42
2021/06/15 00:32:55;;;;;;;4.55;4.20;;;29.20;67.60;;;;;;5124133;28;19938;-42
2021/06/15 00:35:22;;;;;;;4.25;3.90;;;29.20;67.60;;;;;;5124246;28;20091;-43
2021/06/15 00:37:48;;;;;;;4.53;4.13;;;29.10;67.60;;;;;;5121908;28;20040;-42
2021/06/15 00:40:14;;;;;;;4.50;4.10;;;29.10;67.60;;;;;;5124072;28;20039;-42
2021/06/15 00:42:41;;;;;;;4.68;4.28;;;29.10;67.70;;;;;;5122931;28;20058;-41
2021/06/15 00:45:12;;;;;;;4.20;3.80;;;29.10;67.70;;;;;;5123835;28;20077;-42
2021/06/15 00:47:38;;;;;;;4.57;4.20;;;29.10;67.70;;;;;;5123533;28;20275;-41
2021/06/15 00:50:05;;;;;;;4.63;4.22;;;29.10;67.80;;;;;;5135132;27;20126;-43
2021/06/15 00:52:31;;;;;;;4.70;4.25;;;29.10;67.70;;;;;;5123434;28;20039;-41
2021/06/15 00:54:58;;;;;;;4.43;4.03;;;29.10;67.70;;;;;;5123568;28;20117;-43
2021/06/15 00:57:27;;;;;;;4.43;4.03;;;29.10;67.70;;;;;;5123734;28;20276;-41
2021/06/15 00:59:57;;;;;;;4.22;3.83;;;29.00;67.70;;;;;;5123644;28;20043;-42
2021/06/15 01:02:24;;;;;;;4.43;4.03;;;29.00;67.70;;;;;;5105059;28;20023;-42
2021/06/15 01:04:50;;;;;;;4.70;4.30;;;29.00;67.70;;;;;;5123513;28;20031;-41
2021/06/15 01:07:21;;;;;;;4.90;4.43;;;29.00;67.70;;;;;;5123542;28;20023;-41
2021/06/15 01:09:58;;;;;;;4.35;4.03;;;29.10;67.90;;;;;;5123405;28;20031;-43
2021/06/15 01:12:30;;;;;;;;;;;29.00;67.70;;;;;;5123743;28;20878;-41
2021/06/15 01:15:05;;;;;;;4.13;3.67;;;29.00;67.70;;;;;;5123384;28;20365;-42
2021/06/15 01:17:50;;;;;;;4.53;4.15;;;29.00;67.70;;;;;;5123071;28;20023;-43
2021/06/15 01:20:25;;;;;;;4.68;4.28;;;29.00;67.80;;;;;;5123340;28;20027;-41
2021/06/15 01:23:05;;;;;;;4.30;3.92;;;29.00;67.80;;;;;;5123045;28;20438;-41
2021/06/15 01:25:49;;;;;;;4.50;4.10;;;28.90;68.50;;;;;;5105068;28;20027;-42
2021/06/15 01:28:42;;;;;;;4.40;4.00;;;29.00;67.90;;;;;;5123094;28;20023;-42
2021/06/15 01:31:16;;;;;;;4.93;4.53;;;28.90;67.80;;;;;;5123057;28;20027;-43
2021/06/15 01:33:44;;;;;;;4.47;4.07;;;28.90;68.60;;;;;;5122786;28;20035;-42
2021/06/15 01:36:12;;;;;;;4.53;4.13;;;28.90;67.80;;;;;;5088050;28;20548;-40
2021/06/15 01:38:47;;;;;;;4.43;4.13;;;28.90;67.80;;;;;;5087744;28;20058;-43
2021/06/15 01:41:15;;;;;;;5.30;4.30;;;28.90;67.80;;;;;;5104537;28;20035;-42
2021/06/15 01:43:43;;;;;;;4.53;4.13;;;28.80;67.70;;;;;;5122693;28;20390;-43
2021/06/15 01:46:13;;;;;;;4.53;4.20;;;28.80;67.70;;;;;;5104687;28;20502;-42
2021/06/15 01:49:02;;;;;;;4.35;4.03;;;28.90;67.80;;;;;;5103989;28;20024;-42
2021/06/15 01:51:28;;;;;;;4.60;4.20;;;28.80;67.70;;;;;;5105097;28;20039;-42
2021/06/15 01:54:12;;;;;;;4.30;3.90;;;28.80;67.60;;;;;;5118065;27;20050;-43
2021/06/15 01:56:41;;;;;;;4.32;4.00;;;28.80;67.60;;;;;;5114753;27;20031;-43
2021/06/15 01:59:08;;;;;;;4.50;4.10;;;28.80;67.60;;;;;;5150131;27;20099;-43
2021/06/15 02:01:34;;;;;;;;;;;28.80;67.70;;;;;;5150668;27;20169;-42
2021/06/15 02:04:00;;;;;;;4.35;4.00;;;28.80;67.60;;;;;;5131273;27;20725;-42
2021/06/15 02:06:27;;;;;;;4.70;4.30;;;28.80;67.70;;;;;;5114609;27;20034;-42
2021/06/15 02:08:54;;;;;;;4.60;4.20;;;28.80;67.70;;;;;;5131806;27;20031;-42
2021/06/15 02:11:21;;;;;;;4.45;4.05;;;28.80;67.80;;;;;;5114256;27;20765;-42
2021/06/15 02:13:48;;;;;;;4.40;4.07;;;28.70;67.70;;;;;;5126810;28;20034;-41
2021/06/15 02:16:14;;;;;;;4.78;4.38;;;28.70;67.70;;;;;;5110886;28;20034;-42
2021/06/15 02:18:47;;;;;;;4.60;4.20;;;28.70;67.70;;;;;;5110852;28;20042;-42
2021/06/15 02:21:14;;;;;;;4.68;4.28;;;28.70;67.80;;;;;;5094671;28;20079;-42
2021/06/15 02:23:41;;;;;;;;;;;28.70;67.70;;;;;;5094072;28;20038;-41
2021/06/15 02:26:08;;;;;;;4.85;4.07;;;28.70;67.70;;;;;;5129459;28;19966;-43
2021/06/15 02:28:35;;;;;;;4.40;4.05;;;28.60;67.60;;;;;;5129491;28;20035;-42
2021/06/15 02:31:02;;;;;;;4.20;3.90;;;28.60;67.70;;;;;;5110532;28;20040;-42
2021/06/15 02:33:30;;;;;;;;;;;28.60;67.80;;;;;;5127148;27;20099;-42
2021/06/15 02:36:01;;;;;;;;;;;28.60;67.70;;;;;;5129850;28;20268;-42
2021/06/15 02:38:33;;;;;;;4.43;4.10;;;28.60;67.60;;;;;;5129374;28;19954;-41
2021/06/15 02:41:07;;;;;;;4.88;4.35;;;28.60;67.80;;;;;;5094511;28;20104;-43
2021/06/15 02:43:33;;;;;;;4.55;4.15;;;28.50;67.70;;;;;;5128882;28;20108;-42
2021/06/15 02:45:59;;;;;;;4.77;4.37;;;28.50;67.60;;;;;;5093806;28;20032;-42
2021/06/15 02:48:29;;;;;;;4.93;4.53;;;28.50;67.70;;;;;;5116615;27;20754;-41
2021/06/15 02:50:55;;;;;;;4.68;4.28;;;28.50;67.60;;;;;;5131726;27;20291;-43
2021/06/15 02:53:53;;;;;;;4.83;4.43;;;28.50;67.60;;;;;;5113971;27;20035;-41
2021/06/15 02:56:21;;;;;;;5.23;4.13;;;28.50;67.60;;;;;;5131379;27;20551;-42
2021/06/15 02:58:47;;;;;;;4.60;4.25;;;28.50;67.60;;;;;;5114160;27;20119;-42
2021/06/15 03:01:14;;;;;;;5.03;4.55;;;28.50;67.60;;;;;;5114169;27;20019;-43
2021/06/15 03:03:40;;;;;;;4.88;4.47;;;28.40;67.50;;;;;;5149239;27;20031;-41
2021/06/15 03:06:06;;;;;;;4.57;4.17;;;28.50;67.60;;;;;;5146904;27;20217;-42
2021/06/15 03:08:33;;;;;;;4.93;4.53;;;28.40;67.40;;;;;;5146565;27;20015;-41
2021/06/15 03:11:03;;;;;;;4.70;4.30;;;28.40;67.60;;;;;;5146469;27;20047;-42
2021/06/15 03:13:39;;;;;;;4.70;4.30;;;28.40;67.50;;;;;;5109079;27;20027;-43
2021/06/15 03:16:09;;;;;;;5.00;4.60;;;28.40;67.40;;;;;;5107204;28;20031;-42
2021/06/15 03:18:46;;;;;;;4.28;3.97;;;28.30;67.50;;;;;;5091056;28;20024;-42
2021/06/15 03:21:14;;;;;;;4.57;4.17;;;28.30;67.60;;;;;;5107846;28;20028;-41
2021/06/15 03:23:57;;;;;;;4.55;4.25;;;28.30;67.50;;;;;;5107117;28;20057;-43
2021/06/15 03:27:02;;;;;;;4.47;4.07;;;28.30;67.50;;;;;;5125832;28;20723;-41
2021/06/15 03:29:31;;;;;;;4.88;4.47;;;28.30;68.10;;;;;;5092948;28;20463;-42
2021/06/15 03:32:00;;;;;;;4.45;4.05;;;28.30;67.40;;;;;;5124952;28;20058;-41
2021/06/15 03:34:29;;;;;;;4.90;4.47;;;28.30;67.40;;;;;;5125076;28;20027;-42
2021/06/15 03:36:56;;;;;;;5.20;4.45;;;28.30;67.40;;;;;;5090384;28;20031;-41
2021/06/15 03:39:23;;;;;;;5.25;4.50;;;28.20;67.30;;;;;;5090075;28;20030;-41
2021/06/15 03:41:52;;;;;;;5.03;4.63;;;28.30;67.40;;;;;;5125447;28;20035;-41
2021/06/15 03:44:19;;;;;;;6.38;4.53;;;28.20;67.30;;;;;;5106442;28;20023;-41
2021/06/15 03:46:45;;;;;;;5.00;4.57;;;28.20;67.30;;;;;;5106841;28;20061;-42
2021/06/15 03:49:12;;;;;;;4.80;4.40;;;28.20;67.30;;;;;;5092721;27;20035;-42
2021/06/15 03:51:47;;;;;;;5.13;4.70;;;28.20;67.10;;;;;;5112712;28;20345;-42
2021/06/15 03:54:13;;;;;;;4.50;4.20;;;28.20;67.30;;;;;;5124935;28;20057;-42
2021/06/15 03:56:43;;;;;;;4.95;4.55;;;28.10;67.10;;;;;;5125013;28;20510;-43
2021/06/15 03:59:11;;;;;;;6.00;4.47;;;28.10;67.20;;;;;;5124579;28;20052;-42
2021/06/15 04:01:40;;;;;;;4.95;4.55;;;28.10;67.10;;;;;;5089768;28;20024;-41
2021/06/15 04:04:11;;;;;;;4.78;4.40;;;28.10;67.30;;;;;;5106543;28;20027;-42
2021/06/15 04:06:51;;;;;;;4.82;4.43;;;28.10;67.10;;;;;;5124683;28;20027;-43
2021/06/15 04:09:21;;;;;;;4.85;4.40;;;28.10;67.00;;;;;;5107794;28;20027;-42
2021/06/15 04:11:47;;;;;;;4.35;4.05;;;28.00;67.10;;;;;;5124765;28;20057;-42
2021/06/15 04:14:14;;;;;;;4.40;4.05;;;28.00;67.00;;;;;;5098294;28;20035;-41
2021/06/15 04:16:40;;;;;;;5.23;4.03;;;28.00;66.90;;;;;;5068319;28;20028;-39
2021/06/15 04:19:12;;;;;;;4.50;4.20;;;28.00;67.10;;;;;;5117682;28;20297;-43
2021/06/15 04:21:42;;;;;;;5.07;4.65;;;28.00;67.10;;;;;;5105944;28;20019;-43
2021/06/15 04:24:11;;;;;;;4.97;4.57;;;28.00;67.20;;;;;;5124471;28;20083;-42
2021/06/15 04:26:37;;;;;;;4.57;4.18;;;28.00;67.20;;;;;;5088599;28;20028;-43
2021/06/15 04:29:06;;;;;;;5.00;4.60;;;28.00;67.20;;;;;;5104798;28;20031;-42
2021/06/15 04:31:34;;;;;;;4.70;4.30;;;27.90;67.20;;;;;;5124162;28;20036;-42
2021/06/15 04:34:00;;;;;;;4.80;4.40;;;27.90;67.30;;;;;;5105066;28;20024;-42
2021/06/15 04:36:27;;;;;;;4.78;4.38;;;27.90;67.30;;;;;;5106043;28;20028;-42
2021/06/15 04:39:00;;;;;;;5.20;4.60;;;27.90;67.20;;;;;;5088884;28;20106;-41
2021/06/15 04:41:34;;;;;;;4.85;4.45;;;27.90;67.20;;;;;;5106015;28;20036;-42
2021/06/15 04:44:05;;;;;;;5.00;4.60;;;27.80;67.20;;;;;;5106267;28;20043;-41
2021/06/15 04:46:35;;;;;;;5.38;4.90;;;27.80;67.90;;;;;;5123729;28;20034;-42
2021/06/15 04:49:32;;;;;;;5.22;4.82;;;27.80;67.10;;;;;;5109274;27;20106;-43
2021/06/15 04:52:03;;;;;;;4.93;4.53;;;27.80;67.00;;;;;;5125183;27;20038;-43
2021/06/15 04:54:35;;;;;;;4.47;4.10;;;27.80;67.00;;;;;;5144456;27;20032;-42
2021/06/15 04:57:09;;;;;;;4.55;4.20;;;27.70;66.90;;;;;;5125891;27;20031;-42
2021/06/15 04:59:35;;;;;;;4.88;4.47;;;27.70;66.90;;;;;;5125884;27;20791;-43
2021/06/15 05:02:01;;;;;;;4.90;4.50;;;27.70;67.00;;;;;;5125759;27;20027;-43
2021/06/15 05:04:27;;;;;;;5.07;4.60;;;27.70;66.90;;;;;;5125878;27;20031;-42
2021/06/15 05:06:54;;;;;;;5.50;5.00;;;27.70;66.90;;;;;;5125618;27;20027;-41
2021/06/15 05:09:23;;;;;;;4.78;4.38;;;27.70;67.00;;;;;;5125669;27;20025;-42
2021/06/15 05:11:49;;;;;;;5.07;4.68;;;27.70;67.00;;;;;;5125497;27;20054;-41
2021/06/15 05:14:16;;;;;;;5.00;4.60;;;27.70;66.90;;;;;;5117103;28;20031;-43
2021/06/15 05:16:42;;;;;;;4.97;4.57;;;27.70;67.10;;;;;;5105232;28;20051;-43
2021/06/15 05:19:08;;;;;;;5.17;4.60;;;27.70;67.10;;;;;;5104498;28;20033;-42
2021/06/15 05:21:41;;;;;;;5.47;5.07;;;27.60;66.90;;;;;;5123392;28;20028;-43
2021/06/15 05:24:53;;;;;;;5.45;5.00;;;27.60;66.90;;;;;;5123354;28;20252;-41
2021/06/15 05:27:31;;;;;;;4.80;4.40;;;27.60;67.00;;;;;;5111875;28;20040;-42
2021/06/15 05:29:57;;;;;;;5.95;4.80;;;27.60;67.10;;;;;;5122716;28;20050;-42
2021/06/15 05:32:23;;;;;;;5.50;4.65;;;27.60;67.00;;;;;;5123009;28;20043;-43
2021/06/15 05:34:50;;;;;;;4.80;4.40;;;27.50;67.00;;;;;;5123145;28;20077;-41
2021/06/15 05:37:17;;;;;;;4.75;4.43;;;27.60;67.20;;;;;;5123389;28;20035;-41
2021/06/15 05:39:43;;;;;;;;;;;27.50;67.10;;;;;;5123359;28;20026;-41
2021/06/15 05:42:10;;;;;;;5.30;4.78;;;27.50;67.20;;;;;;5121842;28;19911;-42
2021/06/15 05:44:36;;;;;;;5.40;4.90;;;27.50;67.20;;;;;;5122938;28;20032;-42
2021/06/15 05:47:03;;;;;;;5.37;4.87;;;27.40;67.10;;;;;;5131341;28;20027;-42
2021/06/15 05:49:29;;;;;;;5.63;5.15;;;27.40;67.30;;;;;;5107219;28;20023;-41
2021/06/15 05:52:02;;;;;;;5.22;4.80;;;27.40;67.30;;;;;;5123003;28;20050;-42
2021/06/15 05:54:28;;;;;;;5.13;4.72;;;27.40;67.10;;;;;;5123163;28;20069;-42
2021/06/15 05:56:55;;;;;;;5.15;4.75;;;27.40;67.20;;;;;;5122913;28;20032;-43
2021/06/15 05:59:21;;;;;;;4.97;4.50;;;27.40;67.10;;;;;;5122564;28;20082;-42
2021/06/15 06:01:47;;;;;;;4.70;4.30;;;27.40;67.90;;;;;;5123032;28;20035;-43
2021/06/15 06:04:15;;;;;;;5.18;4.78;;;27.40;67.20;;;;;;5122885;28;20023;-42
2021/06/15 06:09:26;;;;;;;4.85;4.32;;;27.30;67.00;;;;;;5122548;28;20039;-39
2021/06/15 06:11:52;;;;;;;5.03;4.60;;;27.30;67.80;;;;;;5122818;28;20039;-41
2021/06/15 06:14:18;;;;;;;4.90;4.50;;;27.30;67.10;;;;;;5122716;28;20088;-41
2021/06/15 06:16:44;;;;;;;5.40;5.00;;;27.30;67.10;;;;;;5122884;28;20048;-42
2021/06/15 06:19:11;;;;;;;4.90;4.50;;;27.20;67.00;;;;;;5087374;28;20549;-42
2021/06/15 06:21:38;;;;;;;5.43;4.90;;;27.20;67.00;;;;;;5122522;28;20036;-42
2021/06/15 06:24:05;;;;;;;5.20;4.80;;;27.20;67.00;;;;;;5087441;28;20032;-42
2021/06/15 06:26:32;;;;;;;4.78;4.38;;;27.20;67.10;;;;;;5122660;28;20480;-43
2021/06/15 06:28:58;;;;;;;4.97;4.55;;;27.20;67.00;;;;;;5121074;28;20028;-42
2021/06/15 06:31:24;;;;;;;5.40;4.90;;;27.20;67.00;;;;;;5121172;28;20036;-42
2021/06/15 06:33:50;;;;;;;5.43;4.93;;;27.20;67.10;;;;;;5122544;28;20263;-43
2021/06/15 06:36:17;;;;;;;4.93;4.53;;;27.10;66.90;;;;;;5122628;28;20107;-42
2021/06/15 06:38:48;;;;;;;4.57;4.20;;;27.10;67.00;;;;;;5122057;28;20111;-42
2021/06/15 06:41:15;;;;;;;4.75;4.40;;;27.10;67.00;;;;;;5123373;28;20043;-43
2021/06/15 06:43:41;;;;;;;;;;;27.10;67.10;;;;;;5126962;28;20032;-43
2021/06/15 06:46:07;;;;;;;5.30;4.90;;;27.10;67.10;;;;;;5125890;28;19907;-42
2021/06/15 06:48:33;;;;;;;6.20;4.68;;;27.10;67.00;;;;;;5132893;27;20031;-42
2021/06/15 06:50:59;;;;;;;5.33;4.83;;;27.10;67.10;;;;;;5126089;28;20034;-41
2021/06/15 06:53:26;;;;;;;5.63;5.10;;;27.00;67.00;;;;;;5126132;28;20663;-43
2021/06/15 06:55:52;;;;;;;4.80;4.40;;;27.00;67.00;;;;;;5126327;28;20028;-42
2021/06/15 06:58:18;;;;;;;5.40;4.90;;;27.00;67.00;;;;;;5126137;28;20036;-42
2021/06/15 07:00:44;;;;;;;5.18;4.78;;;27.00;67.10;;;;;;5125560;28;20615;-43
2021/06/15 07:03:10;;;;;;;5.25;4.30;;;27.00;67.00;;;;;;5126110;28;20057;-43
2021/06/15 07:05:36;;;;;;;4.75;4.35;;;27.00;67.00;;;;;;5126202;28;20020;-42
2021/06/15 07:08:03;;;;;;;4.80;4.35;;;26.90;67.00;;;;;;5126282;28;20116;-43
2021/06/15 07:10:29;;;;;;;5.10;4.70;;;27.00;67.00;;;;;;5125802;28;20034;-42
2021/06/15 07:12:56;;;;;;;5.43;4.93;;;26.90;67.00;;;;;;5125926;28;20075;-43
2021/06/15 07:15:22;;;;;;;5.15;4.75;;;26.90;67.00;;;;;;5125750;28;20035;-42
2021/06/15 07:17:48;;;;;;;4.53;4.13;;;26.90;67.10;;;;;;5125587;28;20020;-43
2021/06/15 07:20:14;;;;;;;4.90;4.50;;;26.90;67.00;;;;;;5125830;28;20437;-42
2021/06/15 07:22:41;;;;;;;5.00;4.55;;;26.80;67.00;;;;;;5125414;28;20028;-41
2021/06/15 07:25:07;;;;;;;4.70;4.30;;;26.80;67.00;;;;;;5125864;28;20023;-42
2021/06/15 07:27:34;;;;;;;6.07;4.97;;;26.80;67.00;;;;;;5125571;28;20900;-43
2021/06/15 07:30:00;;;;;;;5.10;4.70;;;26.80;67.00;;;;;;5125667;28;20050;-42
2021/06/15 07:32:26;;;;;;;5.35;4.95;;;26.80;67.00;;;;;;5125132;28;20050;-42
2021/06/15 07:34:52;;;;;;;5.20;4.70;;;26.80;67.10;;;;;;5125551;28;20093;-41
2021/06/15 07:37:18;;;;;;;4.80;4.40;;;26.70;67.00;;;;;;5125529;28;20030;-42
2021/06/15 07:39:44;;;;;;;5.03;4.63;;;26.70;67.00;;;;;;5125512;28;20020;-42
2021/06/15 07:42:11;;;;;;;6.55;4.97;;;26.70;67.00;;;;;;5125117;28;20052;-43
2021/06/15 07:44:37;;;;;;;5.10;4.70;;;26.70;67.00;;;;;;5125291;28;20070;-43
2021/06/15 07:47:03;;;;;;;5.10;4.70;;;26.70;67.00;;;;;;5126683;27;20263;-42
2021/06/15 07:49:30;;;;;;;5.13;4.73;;;26.70;67.10;;;;;;5134903;27;20038;-42
2021/06/15 07:51:56;;;;;;;;;;;26.70;67.00;;;;;;5145620;27;20311;-42
2021/06/15 07:54:23;;;;;;;4.82;4.43;;;26.70;67.10;;;;;;5145890;27;19918;-43
2021/06/15 07:56:49;;;;;;;5.10;4.60;;;26.70;67.10;;;;;;5145929;27;20041;-42
2021/06/15 07:59:15;;;;;;;5.13;4.73;;;26.60;67.00;;;;;;5145523;27;20043;-42
2021/06/15 08:01:41;;;;;;;5.00;4.60;;;26.60;67.00;;;;;;5126795;27;20058;-42
2021/06/15 08:04:12;;;;;;;4.85;4.45;;;26.60;67.10;;;;;;5145703;27;20034;-42
2021/06/15 08:06:38;;;;;;;4.70;4.40;;;26.60;67.10;;;;;;5145521;27;20027;-42
2021/06/15 08:09:05;;;;;;;4.95;4.55;;;26.60;67.20;;;;;;5127251;27;20026;-43
2021/06/15 08:11:31;;;;;;;5.43;4.87;;;26.50;67.10;;;;;;5134957;27;20055;-42
2021/06/15 08:13:57;;;;;;;5.20;4.80;;;26.50;67.10;;;;;;5124736;28;20032;-42
2021/06/15 08:16:23;;;;;;;5.13;4.68;;;26.50;67.10;;;;;;5123554;28;20106;-42
2021/06/15 08:18:49;;;;;;;4.72;4.32;;;26.50;67.10;;;;;;5124299;28;20445;-43
2021/06/15 08:21:16;;;;;;;5.75;4.70;;;26.50;67.20;;;;;;5124409;28;20056;-42
2021/06/15 08:23:42;;;;;;;5.40;5.00;;;26.50;67.20;;;;;;5124671;28;20245;-42
2021/06/15 08:26:08;;;;;;;4.63;4.32;;;26.40;67.00;;;;;;5124653;28;20054;-42
2021/06/15 08:28:34;;;;;;;5.13;4.72;;;26.40;67.20;;;;;;5105166;28;20139;-43
2021/06/15 08:31:01;;;;;;;5.75;5.20;;;26.40;67.10;;;;;;5124259;28;20036;-42
2021/06/15 08:33:27;;;;;;;6.07;4.97;;;26.40;67.10;;;;;;5124247;28;20034;-42
2021/06/15 08:35:53;;;;;;;5.20;4.72;;;26.40;67.20;;;;;;5124548;28;20046;-42
2021/06/15 08:38:20;;;;;;;4.78;4.38;;;26.40;67.90;;;;;;5124223;28;20112;-42
2021/06/15 08:40:47;;;;;;;4.90;4.50;;;26.40;67.20;;;;;;5124331;28;20705;-42
2021/06/15 08:43:13;;;;;;;5.05;4.60;;;26.40;67.20;;;;;;5123240;28;20032;-43
2021/06/15 08:45:42;;;;;;;5.60;5.10;;;26.30;67.20;;;;;;5124372;28;20106;-42
2021/06/15 08:48:09;;;;;;;5.05;4.65;;;26.40;67.30;;;;;;5123349;28;20059;-42
2021/06/15 08:50:35;;;;;;;5.63;5.18;;;26.30;67.20;;;;;;5142445;27;20023;-42
2021/06/15 08:53:02;;;;;;;4.63;4.22;;;26.30;67.20;;;;;;5144563;27;20043;-41
2021/06/15 08:55:30;;;;;;;5.00;4.57;;;26.30;67.20;;;;;;5144536;27;20031;-43
2021/06/15 08:58:21;;;;;;;5.00;4.60;;;26.30;67.30;;;;;;5144279;27;20054;-43
2021/06/15 09:00:47;;;;;;;4.70;4.38;;;26.30;67.30;;;;;;5125847;27;20015;-42
2021/06/15 09:03:14;;;;;;;4.80;4.40;;;26.20;67.10;;;;;;5143364;27;20027;-42
2021/06/15 09:05:41;;;;;;;5.18;4.78;;;26.20;67.10;;;;;;5144399;27;20027;-42
2021/06/15 09:08:11;;;;;;;5.18;4.68;;;26.20;67.20;;;;;;5125713;27;20034;-42
2021/06/15 09:10:43;;;;;;;5.10;4.70;;;26.20;67.20;;;;;;5144269;27;20031;-42
2021/06/15 09:13:54;;;;;;;5.18;4.72;;;26.20;67.30;;;;;;5143897;27;20066;-43
2021/06/15 09:16:38;;;;;;;5.22;4.82;;;26.10;67.30;;;;;;5136204;27;20048;-42
2021/06/15 09:19:18;;;;;;;5.63;4.95;;;26.10;67.30;;;;;;5123436;28;20028;-43
2021/06/15 09:21:48;;;;;;;5.35;4.80;;;26.10;67.30;;;;;;5123542;28;20486;-42
2021/06/15 09:24:22;;;;;;;5.10;4.70;;;26.10;67.30;;;;;;5123225;28;20023;-42
2021/06/15 09:27:10;;;;;;;5.10;4.70;;;26.10;67.40;;;;;;5123471;28;20027;-42
2021/06/15 09:29:37;;;;;;;;;;;26.10;67.30;;;;;;5123779;28;20024;-43
2021/06/15 09:32:04;;;;;;;5.38;4.88;;;26.10;67.40;;;;;;5123251;28;19919;-43
2021/06/15 09:34:30;;;;;;;5.30;4.80;;;26.00;67.30;;;;;;5123039;28;20019;-43
2021/06/15 09:36:56;;;;;;;4.50;4.10;;;26.00;67.30;;;;;;5123371;28;20040;-42
2021/06/15 09:39:23;;;;;;;5.23;4.73;;;26.10;67.40;;;;;;5123306;28;20036;-42
2021/06/15 09:41:49;;;;;;;5.43;4.93;;;26.00;67.40;;;;;;5104822;28;20028;-42
2021/06/15 09:44:21;;;;;;;5.40;4.90;;;26.00;67.40;;;;;;5123008;28;20034;-43
2021/06/15 09:46:52;;;;;;;5.47;5.07;;;26.00;67.40;;;;;;5116512;28;20028;-43
2021/06/15 09:49:28;;;;;;;4.93;4.43;;;25.90;67.30;;;;;;5124029;27;20598;-42
2021/06/15 09:52:26;;;;;;;4.97;4.55;;;25.90;67.30;;;;;;5123104;28;20028;-42
2021/06/15 09:54:58;;;;;;;5.15;4.75;;;25.90;67.40;;;;;;5123119;28;20039;-42
2021/06/15 09:57:32;;;;;;;5.05;4.57;;;25.90;67.30;;;;;;5123152;28;20023;-42
2021/06/15 10:00:09;;;;;;;4.90;4.50;;;25.90;67.40;;;;;;5123139;28;20051;-42
2021/06/15 10:02:45;;;;;;;5.70;5.20;;;25.90;67.40;;;;;;5122597;28;20019;-42
2021/06/15 10:05:31;;;;;;;4.97;4.57;;;25.80;67.30;;;;;;5123130;28;20047;-42
2021/06/15 10:08:00;;;;;;;5.15;4.68;;;25.80;67.40;;;;;;5104338;28;20077;-43
2021/06/15 10:10:29;;;;;;;5.28;4.78;;;25.90;67.50;;;;;;5123136;28;20016;-42
2021/06/15 10:12:55;;;;;;;5.25;4.85;;;25.80;67.50;;;;;;5122489;28;20472;-42
2021/06/15 10:15:22;;;;;;;6.95;4.38;;;25.80;67.50;;;;;;5124939;28;20027;-42
2021/06/15 10:17:48;;;;;;;5.03;4.63;;;25.80;67.50;;;;;;5114996;28;20031;-43
2021/06/15 10:20:19;;;;;;;5.00;4.60;;;25.80;67.50;;;;;;5127179;28;20054;-42
2021/06/15 10:22:46;;;;;;;5.32;4.82;;;25.70;67.50;;;;;;5108928;28;20034;-43
2021/06/15 10:25:12;;;;;;;4.85;4.45;;;25.70;67.50;;;;;;5127010;28;20440;-43
2021/06/15 10:27:39;;;;;;;5.80;5.25;;;25.80;67.60;;;;;;5107289;28;20016;-43
2021/06/15 10:30:06;;;;;;;;;;;25.70;67.50;;;;;;5108606;28;20057;-43
2021/06/15 10:32:32;;;;;;;4.85;4.45;;;25.70;67.50;;;;;;5126693;28;19934;-44
2021/06/15 10:35:04;;;;;;;5.10;4.68;;;25.70;67.50;;;;;;5126542;28;20023;-43
2021/06/15 10:37:37;;;;;;;5.32;4.82;;;25.70;67.50;;;;;;5125838;28;20031;-43
2021/06/15 10:40:06;;;;;;;5.18;4.72;;;25.60;67.50;;;;;;5126678;28;20028;-43
2021/06/15 10:42:33;;;;;;;5.10;4.70;;;25.70;67.60;;;;;;5126435;28;20027;-43
2021/06/15 10:45:20;;;;;;;5.20;4.72;;;25.60;67.60;;;;;;5126458;28;20034;-44
2021/06/15 10:48:05;;;;;;;5.35;4.57;;;25.60;67.60;;;;;;5126958;27;20034;-44
2021/06/15 10:50:35;;;;;;;4.97;4.57;;;25.60;67.60;;;;;;5115297;27;20026;-43
2021/06/15 10:53:02;;;;;;;5.97;4.63;;;25.60;67.70;;;;;;5126513;28;20087;-43
2021/06/15 10:55:49;;;;;;;5.13;4.72;;;25.60;67.70;;;;;;5126398;28;20031;-44
2021/06/15 10:58:16;;;;;;;4.90;4.45;;;25.60;67.60;;;;;;5107752;28;20078;-44
2021/06/15 11:00:51;;;;;;;;;;;25.50;67.50;;;;;;5126462;28;20020;-43
2021/06/15 11:03:18;;;;;;;5.85;5.15;;;25.60;67.70;;;;;;5126092;28;19914;-44
2021/06/15 11:06:00;;;;;;;4.72;4.32;;;25.60;67.80;;;;;;5126334;28;20054;-44
2021/06/15 11:08:28;;;;;;;5.07;4.68;;;25.50;67.70;;;;;;5126316;28;20028;-43
2021/06/15 11:10:54;;;;;;;5.10;4.70;;;25.50;67.70;;;;;;5125684;28;20020;-43
2021/06/15 11:13:40;;;;;;;4.63;4.25;;;25.50;67.70;;;;;;5125725;28;20031;-44
2021/06/15 11:16:07;;;;;;;5.25;4.85;;;25.50;67.70;;;;;;5125237;28;20027;-43
2021/06/15 11:18:33;;;;;;;5.00;4.60;;;25.40;67.70;;;;;;5114542;28;20032;-43
2021/06/15 11:21:16;;;;;;;5.22;4.80;;;25.50;67.70;;;;;;5125607;28;20024;-44
2021/06/15 11:23:42;;;;;;;5.07;4.68;;;25.40;67.70;;;;;;5107502;28;20421;-44
2021/06/15 11:26:15;;;;;;;4.95;4.55;;;25.40;67.70;;;;;;5125019;28;20024;-43
2021/06/15 11:28:48;;;;;;;5.20;4.80;;;25.40;67.70;;;;;;5125669;28;20093;-44
2021/06/15 11:31:18;;;;;;;5.43;4.93;;;25.40;67.80;;;;;;5125423;28;20042;-43
2021/06/15 11:34:26;;;;;;;5.28;4.88;;;25.40;67.70;;;;;;5125469;28;20035;-43
2021/06/15 11:36:54;;;;;;;4.88;4.47;;;25.40;67.80;;;;;;5120944;28;20126;-43
2021/06/15 11:39:24;;;;;;;5.05;4.63;;;25.40;67.80;;;;;;5125731;28;20054;-44
2021/06/15 11:42:21;;;;;;;4.80;4.40;;;25.40;67.70;;;;;;5125068;28;20031;-43
2021/06/15 11:44:54;;;;;;;4.93;4.50;;;25.30;67.80;;;;;;5125462;28;20053;-43
2021/06/15 11:47:30;;;;;;;4.63;4.32;;;25.30;67.70;;;;;;5114017;28;20028;-43
2021/06/15 11:50:30;;;;;;;5.15;4.13;;;25.30;67.80;;;;;;5099246;28;20028;-43
2021/06/15 11:52:58;;;;;;;4.88;4.32;;;25.30;67.80;;;;;;5084405;28;20576;-44
2021/06/15 11:55:41;;;;;;;4.55;4.25;;;25.30;67.80;;;;;;5066493;28;20161;-43
2021/06/15 11:58:18;;;;;;;5.28;4.78;;;25.30;67.80;;;;;;5089228;28;20055;-44
2021/06/15 12:00:49;;;;;;;4.90;4.50;;;25.30;67.90;;;;;;5104156;28;20028;-44
2021/06/15 12:03:19;;;;;;;5.32;4.63;;;25.30;67.90;;;;;;5104684;28;20028;-43
2021/06/15 12:05:47;;;;;;;4.82;4.43;;;25.20;67.90;;;;;;5086593;28;20036;-43
2021/06/15 12:08:13;;;;;;;4.75;4.35;;;25.20;67.80;;;;;;5104435;28;20036;-43
2021/06/15 12:10:40;;;;;;;5.30;4.90;;;25.20;67.90;;;;;;5104043;28;20024;-43
2021/06/15 12:13:28;;;;;;;5.45;4.95;;;25.20;67.90;;;;;;5104424;28;20122;-43
2021/06/15 12:16:11;;;;;;;5.25;4.85;;;25.20;67.80;;;;;;5104378;28;20115;-43
2021/06/15 12:18:39;;;;;;;4.35;4.05;;;25.20;67.90;;;;;;5114286;28;21389;-42
2021/06/15 12:21:22;;;;;;;4.93;4.53;;;25.20;67.90;;;;;;5105955;28;20069;-44
2021/06/15 12:23:49;;;;;;;5.30;4.90;;;25.20;67.80;;;;;;5124642;28;20032;-45
2021/06/15 12:26:16;;;;;;;5.00;4.60;;;25.20;67.80;;;;;;5124583;28;20069;-43
2021/06/15 12:28:54;;;;;;;4.90;4.50;;;25.20;67.80;;;;;;5124655;28;20131;-43
2021/06/15 12:31:45;;;;;;;5.30;4.80;;;25.20;68.50;;;;;;5123761;28;20105;-43
2021/06/15 12:34:11;;;;;;;4.90;4.50;;;25.20;67.80;;;;;;5124453;28;20028;-44
2021/06/15 12:36:42;;;;;;;5.55;4.65;;;25.20;67.80;;;;;;5123864;28;20647;-44
2021/06/15 12:39:19;;;;;;;4.93;4.45;;;25.20;67.80;;;;;;5123292;28;20035;-43
2021/06/15 12:41:51;;;;;;;4.93;4.53;;;25.20;67.80;;;;;;5105450;28;20039;-44
2021/06/15 12:44:17;;;;;;;4.72;4.32;;;25.20;67.80;;;;;;5124181;28;20038;-42
2021/06/15 12:46:44;;;;;;;5.18;4.75;;;25.20;67.90;;;;;;5123890;28;20096;-43
2021/06/15 12:49:21;;;;;;;4.38;4.07;;;25.20;67.90;;;;;;5103455;28;20054;-42
2021/06/15 12:52:00;;;;;;;5.15;4.70;;;25.20;67.90;;;;;;5122606;28;20489;-43
2021/06/15 12:54:31;;;;;;;4.75;4.38;;;25.30;68.00;;;;;;5124331;28;20496;-42
2021/06/15 12:57:04;;;;;;;5.13;4.30;;;25.30;68.00;;;;;;5123907;28;20145;-43
2021/06/15 12:59:31;;;;;;;4.70;4.30;;;25.20;68.00;;;;;;5123978;28;20047;-42
2021/06/15 13:01:58;;;;;;;8.02;4.45;;;25.20;68.00;;;;;;5105156;28;20112;-42
2021/06/15 13:04:25;;;;;;;5.60;4.53;;;25.20;68.00;;;;;;5123817;28;20095;-43
2021/06/15 13:06:54;;;;;;;5.07;4.68;;;25.30;68.00;;;;;;5105295;28;20057;-45
2021/06/15 13:09:22;;;;;;;5.10;4.70;;;25.30;68.00;;;;;;5123790;28;20083;-44